sensor_id;sensor_type;location;lat;lon;timestamp;P1;durP1;ratioP1;P2;durP2;ratioP2
4810;SDS011;2419;51.276;6.472;2023-09-07T00:00:32;11.40;;;6.40;;
4810;SDS011;2419;51.276;6.472;2023-09-07T00:03:02;11.80;;;6.40;;
4810;SDS011;2419;51.276;6.472;2023-09-07T00:05:31;5.10;;;4.53;;
4810;SDS011;2419;51.276;6.472;2023-09-07T00:07:59;7.50;;;5.53;;
4810;SDS011;2419;51.276;6.472;2023-09-07T00:10:27;8.20;;;5.77;;
4810;SDS011;2419;51.276;6.472;2023-09-07T00:12:55;8.03;;;5.70;;
4810;SDS011;2419;51.276;6.472;2023-09-07T00:15:24;10.77;;;6.43;;
4810;SDS011;2419;51.276;6.472;2023-09-07T00:17:52;7.40;;;5.63;;
4810;SDS011;2419;51.276;6.472;2023-09-07T00:20:22;10.63;;;5.40;;
4810;SDS011;2419;51.276;6.472;2023-09-07T00:22:51;7.90;;;5.60;;
4810;SDS011;2419;51.276;6.472;2023-09-07T00:25:19;10.37;;;5.50;;
4810;SDS011;2419;51.276;6.472;2023-09-07T00:27:47;7.37;;;5.23;;
4810;SDS011;2419;51.276;6.472;2023-09-07T00:30:15;8.13;;;5.50;;
4810;SDS011;2419;51.276;6.472;2023-09-07T00:32:43;8.03;;;5.50;;
4810;SDS011;2419;51.276;6.472;2023-09-07T00:35:11;6.73;;;5.07;;
4810;SDS011;2419;51.276;6.472;2023-09-07T00:37:41;7.10;;;4.87;;
4810;SDS011;2419;51.276;6.472;2023-09-07T00:40:09;7.27;;;4.93;;
4810;SDS011;2419;51.276;6.472;2023-09-07T00:42:37;9.50;;;4.80;;
4810;SDS011;2419;51.276;6.472;2023-09-07T00:45:06;5.63;;;5.03;;
4810;SDS011;2419;51.276;6.472;2023-09-07T00:47:34;8.47;;;5.60;;
4810;SDS011;2419;51.276;6.472;2023-09-07T00:50:03;7.73;;;5.60;;
4810;SDS011;2419;51.276;6.472;2023-09-07T00:52:34;8.10;;;5.20;;
4810;SDS011;2419;51.276;6.472;2023-09-07T00:55:08;6.67;;;5.20;;
4810;SDS011;2419;51.276;6.472;2023-09-07T00:57:37;9.80;;;5.93;;
4810;SDS011;2419;51.276;6.472;2023-09-07T01:00:09;7.43;;;5.70;;
4810;SDS011;2419;51.276;6.472;2023-09-07T01:02:38;7.90;;;5.30;;
4810;SDS011;2419;51.276;6.472;2023-09-07T01:05:08;8.97;;;5.10;;
4810;SDS011;2419;51.276;6.472;2023-09-07T01:07:37;10.20;;;5.30;;
4810;SDS011;2419;51.276;6.472;2023-09-07T01:10:11;9.13;;;5.63;;
4810;SDS011;2419;51.276;6.472;2023-09-07T01:12:39;10.93;;;5.20;;
4810;SDS011;2419;51.276;6.472;2023-09-07T01:15:08;12.47;;;6.10;;
4810;SDS011;2419;51.276;6.472;2023-09-07T01:17:37;6.10;;;5.00;;
4810;SDS011;2419;51.276;6.472;2023-09-07T01:20:07;7.90;;;5.07;;
4810;SDS011;2419;51.276;6.472;2023-09-07T01:22:38;8.43;;;4.97;;
4810;SDS011;2419;51.276;6.472;2023-09-07T01:25:08;5.63;;;4.63;;
4810;SDS011;2419;51.276;6.472;2023-09-07T01:27:36;6.47;;;4.50;;
4810;SDS011;2419;51.276;6.472;2023-09-07T01:30:06;7.23;;;5.00;;
4810;SDS011;2419;51.276;6.472;2023-09-07T01:32:35;7.70;;;5.13;;
4810;SDS011;2419;51.276;6.472;2023-09-07T01:35:04;7.33;;;4.50;;
4810;SDS011;2419;51.276;6.472;2023-09-07T01:37:34;5.23;;;4.40;;
4810;SDS011;2419;51.276;6.472;2023-09-07T01:40:05;6.10;;;4.40;;
4810;SDS011;2419;51.276;6.472;2023-09-07T01:42:35;15.30;;;5.13;;
4810;SDS011;2419;51.276;6.472;2023-09-07T01:45:04;11.07;;;5.17;;
4810;SDS011;2419;51.276;6.472;2023-09-07T01:47:32;8.13;;;4.30;;
4810;SDS011;2419;51.276;6.472;2023-09-07T01:50:01;8.03;;;4.80;;
4810;SDS011;2419;51.276;6.472;2023-09-07T01:52:29;6.10;;;4.80;;
4810;SDS011;2419;51.276;6.472;2023-09-07T01:54:57;12.70;;;4.53;;
4810;SDS011;2419;51.276;6.472;2023-09-07T01:57:27;10.63;;;4.37;;
4810;SDS011;2419;51.276;6.472;2023-09-07T01:59:55;5.20;;;4.23;;
4810;SDS011;2419;51.276;6.472;2023-09-07T02:02:23;6.40;;;4.80;;
4810;SDS011;2419;51.276;6.472;2023-09-07T02:04:51;6.63;;;4.67;;
4810;SDS011;2419;51.276;6.472;2023-09-07T02:07:20;6.83;;;4.70;;
4810;SDS011;2419;51.276;6.472;2023-09-07T02:09:48;7.90;;;4.13;;
4810;SDS011;2419;51.276;6.472;2023-09-07T02:12:15;9.80;;;5.00;;
4810;SDS011;2419;51.276;6.472;2023-09-07T02:14:45;5.97;;;4.73;;
4810;SDS011;2419;51.276;6.472;2023-09-07T02:17:13;6.30;;;4.53;;
4810;SDS011;2419;51.276;6.472;2023-09-07T02:19:44;11.00;;;4.63;;
4810;SDS011;2419;51.276;6.472;2023-09-07T02:22:12;6.77;;;4.77;;
4810;SDS011;2419;51.276;6.472;2023-09-07T02:24:40;7.10;;;5.00;;
4810;SDS011;2419;51.276;6.472;2023-09-07T02:27:08;7.37;;;4.50;;
4810;SDS011;2419;51.276;6.472;2023-09-07T02:29:37;5.80;;;4.37;;
4810;SDS011;2419;51.276;6.472;2023-09-07T02:32:06;4.90;;;4.13;;
4810;SDS011;2419;51.276;6.472;2023-09-07T02:34:35;5.80;;;4.30;;
4810;SDS011;2419;51.276;6.472;2023-09-07T02:37:03;5.10;;;4.27;;
4810;SDS011;2419;51.276;6.472;2023-09-07T02:39:31;5.93;;;4.30;;
4810;SDS011;2419;51.276;6.472;2023-09-07T02:42:00;4.40;;;3.80;;
4810;SDS011;2419;51.276;6.472;2023-09-07T02:44:28;7.80;;;4.47;;
4810;SDS011;2419;51.276;6.472;2023-09-07T02:46:57;11.93;;;4.47;;
4810;SDS011;2419;51.276;6.472;2023-09-07T02:49:26;7.00;;;4.30;;
4810;SDS011;2419;51.276;6.472;2023-09-07T02:51:54;5.90;;;4.63;;
4810;SDS011;2419;51.276;6.472;2023-09-07T02:54:23;9.73;;;4.63;;
4810;SDS011;2419;51.276;6.472;2023-09-07T02:56:51;7.03;;;4.63;;
4810;SDS011;2419;51.276;6.472;2023-09-07T02:59:19;7.03;;;4.80;;
4810;SDS011;2419;51.276;6.472;2023-09-07T03:01:48;5.70;;;5.03;;
4810;SDS011;2419;51.276;6.472;2023-09-07T03:04:16;6.87;;;4.27;;
4810;SDS011;2419;51.276;6.472;2023-09-07T03:06:45;11.27;;;5.27;;
4810;SDS011;2419;51.276;6.472;2023-09-07T03:09:13;5.27;;;4.27;;
4810;SDS011;2419;51.276;6.472;2023-09-07T03:11:42;4.90;;;4.10;;
4810;SDS011;2419;51.276;6.472;2023-09-07T03:14:10;8.90;;;5.30;;
4810;SDS011;2419;51.276;6.472;2023-09-07T03:16:38;8.43;;;5.10;;
4810;SDS011;2419;51.276;6.472;2023-09-07T03:19:08;7.43;;;4.80;;
4810;SDS011;2419;51.276;6.472;2023-09-07T03:21:36;6.93;;;4.10;;
4810;SDS011;2419;51.276;6.472;2023-09-07T03:24:06;7.00;;;5.20;;
4810;SDS011;2419;51.276;6.472;2023-09-07T03:26:34;9.60;;;5.60;;
4810;SDS011;2419;51.276;6.472;2023-09-07T03:29:02;6.93;;;5.10;;
4810;SDS011;2419;51.276;6.472;2023-09-07T03:31:31;6.17;;;4.63;;
4810;SDS011;2419;51.276;6.472;2023-09-07T03:33:59;7.07;;;4.80;;
4810;SDS011;2419;51.276;6.472;2023-09-07T03:36:27;7.43;;;5.30;;
4810;SDS011;2419;51.276;6.472;2023-09-07T03:38:55;7.50;;;4.63;;
4810;SDS011;2419;51.276;6.472;2023-09-07T03:41:24;7.40;;;5.00;;
4810;SDS011;2419;51.276;6.472;2023-09-07T03:43:57;7.90;;;4.87;;
4810;SDS011;2419;51.276;6.472;2023-09-07T03:46:27;5.97;;;4.90;;
4810;SDS011;2419;51.276;6.472;2023-09-07T03:48:56;6.17;;;4.57;;
4810;SDS011;2419;51.276;6.472;2023-09-07T03:51:24;10.73;;;5.07;;
4810;SDS011;2419;51.276;6.472;2023-09-07T03:53:52;8.77;;;4.93;;
4810;SDS011;2419;51.276;6.472;2023-09-07T03:56:20;7.60;;;4.90;;
4810;SDS011;2419;51.276;6.472;2023-09-07T03:58:49;7.90;;;4.70;;
4810;SDS011;2419;51.276;6.472;2023-09-07T04:01:17;6.27;;;4.77;;
4810;SDS011;2419;51.276;6.472;2023-09-07T04:03:45;8.47;;;4.60;;
4810;SDS011;2419;51.276;6.472;2023-09-07T04:06:14;10.40;;;5.20;;
4810;SDS011;2419;51.276;6.472;2023-09-07T04:08:41;20.80;;;5.00;;
4810;SDS011;2419;51.276;6.472;2023-09-07T04:11:10;9.80;;;5.10;;
4810;SDS011;2419;51.276;6.472;2023-09-07T04:13:39;8.23;;;4.23;;
4810;SDS011;2419;51.276;6.472;2023-09-07T04:16:09;7.40;;;4.77;;
4810;SDS011;2419;51.276;6.472;2023-09-07T04:18:37;8.63;;;5.10;;
4810;SDS011;2419;51.276;6.472;2023-09-07T04:21:06;15.10;;;5.57;;
4810;SDS011;2419;51.276;6.472;2023-09-07T04:23:35;14.13;;;5.93;;
4810;SDS011;2419;51.276;6.472;2023-09-07T04:26:08;9.00;;;5.37;;
4810;SDS011;2419;51.276;6.472;2023-09-07T04:28:37;10.53;;;5.17;;
4810;SDS011;2419;51.276;6.472;2023-09-07T04:31:07;8.57;;;5.63;;
4810;SDS011;2419;51.276;6.472;2023-09-07T04:33:36;8.80;;;5.40;;
4810;SDS011;2419;51.276;6.472;2023-09-07T04:36:08;18.77;;;5.50;;
4810;SDS011;2419;51.276;6.472;2023-09-07T04:38:38;7.23;;;4.97;;
4810;SDS011;2419;51.276;6.472;2023-09-07T04:41:07;16.20;;;5.27;;
4810;SDS011;2419;51.276;6.472;2023-09-07T04:43:36;18.13;;;5.00;;
4810;SDS011;2419;51.276;6.472;2023-09-07T04:46:06;9.73;;;5.13;;
4810;SDS011;2419;51.276;6.472;2023-09-07T04:48:35;7.50;;;4.93;;
4810;SDS011;2419;51.276;6.472;2023-09-07T04:51:05;7.80;;;5.10;;
4810;SDS011;2419;51.276;6.472;2023-09-07T04:53:35;6.40;;;4.27;;
4810;SDS011;2419;51.276;6.472;2023-09-07T04:56:05;6.40;;;4.70;;
4810;SDS011;2419;51.276;6.472;2023-09-07T04:58:34;7.03;;;4.80;;
4810;SDS011;2419;51.276;6.472;2023-09-07T05:01:02;7.77;;;4.37;;
4810;SDS011;2419;51.276;6.472;2023-09-07T05:03:31;12.90;;;5.20;;
4810;SDS011;2419;51.276;6.472;2023-09-07T05:06:01;10.63;;;5.47;;
4810;SDS011;2419;51.276;6.472;2023-09-07T05:08:30;9.10;;;5.60;;
4810;SDS011;2419;51.276;6.472;2023-09-07T05:11:00;10.57;;;4.83;;
4810;SDS011;2419;51.276;6.472;2023-09-07T05:13:30;11.07;;;5.30;;
4810;SDS011;2419;51.276;6.472;2023-09-07T05:16:00;11.13;;;5.33;;
4810;SDS011;2419;51.276;6.472;2023-09-07T05:18:28;14.63;;;6.00;;
4810;SDS011;2419;51.276;6.472;2023-09-07T05:20:57;15.87;;;6.07;;
4810;SDS011;2419;51.276;6.472;2023-09-07T05:23:26;13.63;;;4.77;;
4810;SDS011;2419;51.276;6.472;2023-09-07T05:25:55;14.37;;;5.47;;
4810;SDS011;2419;51.276;6.472;2023-09-07T05:28:25;12.90;;;5.47;;
4810;SDS011;2419;51.276;6.472;2023-09-07T05:30:55;17.87;;;5.50;;
4810;SDS011;2419;51.276;6.472;2023-09-07T05:33:23;14.37;;;5.00;;
4810;SDS011;2419;51.276;6.472;2023-09-07T05:35:52;12.00;;;6.20;;
4810;SDS011;2419;51.276;6.472;2023-09-07T05:38:20;26.60;;;5.27;;
4810;SDS011;2419;51.276;6.472;2023-09-07T05:40:51;39.53;;;7.10;;
4810;SDS011;2419;51.276;6.472;2023-09-07T05:43:31;16.33;;;5.10;;
4810;SDS011;2419;51.276;6.472;2023-09-07T05:45:59;15.03;;;4.43;;
4810;SDS011;2419;51.276;6.472;2023-09-07T05:48:28;16.60;;;4.70;;
4810;SDS011;2419;51.276;6.472;2023-09-07T05:50:56;8.37;;;4.20;;
4810;SDS011;2419;51.276;6.472;2023-09-07T05:53:24;18.37;;;5.00;;
4810;SDS011;2419;51.276;6.472;2023-09-07T05:55:54;10.40;;;5.10;;
4810;SDS011;2419;51.276;6.472;2023-09-07T05:58:22;11.07;;;5.60;;
4810;SDS011;2419;51.276;6.472;2023-09-07T06:00:50;15.53;;;4.97;;
4810;SDS011;2419;51.276;6.472;2023-09-07T06:03:19;9.67;;;5.47;;
4810;SDS011;2419;51.276;6.472;2023-09-07T06:05:47;10.13;;;5.30;;
4810;SDS011;2419;51.276;6.472;2023-09-07T06:08:16;10.43;;;6.33;;
4810;SDS011;2419;51.276;6.472;2023-09-07T06:10:44;7.20;;;5.20;;
4810;SDS011;2419;51.276;6.472;2023-09-07T06:13:14;14.20;;;5.43;;
4810;SDS011;2419;51.276;6.472;2023-09-07T06:15:42;23.13;;;6.30;;
4810;SDS011;2419;51.276;6.472;2023-09-07T06:18:10;9.37;;;5.90;;
4810;SDS011;2419;51.276;6.472;2023-09-07T06:20:39;6.00;;;5.17;;
4810;SDS011;2419;51.276;6.472;2023-09-07T06:23:07;6.60;;;5.13;;
4810;SDS011;2419;51.276;6.472;2023-09-07T06:25:35;12.53;;;6.00;;
4810;SDS011;2419;51.276;6.472;2023-09-07T06:28:04;9.73;;;6.20;;
4810;SDS011;2419;51.276;6.472;2023-09-07T06:30:34;6.97;;;5.50;;
4810;SDS011;2419;51.276;6.472;2023-09-07T06:33:02;8.67;;;5.33;;
4810;SDS011;2419;51.276;6.472;2023-09-07T06:35:31;8.23;;;5.80;;
4810;SDS011;2419;51.276;6.472;2023-09-07T06:37:59;8.27;;;4.87;;
4810;SDS011;2419;51.276;6.472;2023-09-07T06:40:27;8.90;;;4.97;;
4810;SDS011;2419;51.276;6.472;2023-09-07T06:42:57;6.43;;;5.20;;
4810;SDS011;2419;51.276;6.472;2023-09-07T06:45:26;21.07;;;5.30;;
4810;SDS011;2419;51.276;6.472;2023-09-07T06:47:56;10.63;;;4.70;;
4810;SDS011;2419;51.276;6.472;2023-09-07T06:50:25;10.83;;;4.77;;
4810;SDS011;2419;51.276;6.472;2023-09-07T06:52:53;9.13;;;4.20;;
4810;SDS011;2419;51.276;6.472;2023-09-07T06:55:22;9.20;;;4.90;;
4810;SDS011;2419;51.276;6.472;2023-09-07T06:57:50;10.73;;;5.40;;
4810;SDS011;2419;51.276;6.472;2023-09-07T07:00:18;22.97;;;5.90;;
4810;SDS011;2419;51.276;6.472;2023-09-07T07:02:46;6.07;;;4.70;;
4810;SDS011;2419;51.276;6.472;2023-09-07T07:05:16;8.07;;;4.77;;
4810;SDS011;2419;51.276;6.472;2023-09-07T07:07:44;7.50;;;5.03;;
4810;SDS011;2419;51.276;6.472;2023-09-07T07:10:12;12.60;;;5.60;;
4810;SDS011;2419;51.276;6.472;2023-09-07T07:12:40;7.57;;;5.20;;
4810;SDS011;2419;51.276;6.472;2023-09-07T07:15:09;16.97;;;5.80;;
4810;SDS011;2419;51.276;6.472;2023-09-07T07:17:38;5.87;;;4.63;;
4810;SDS011;2419;51.276;6.472;2023-09-07T07:20:07;7.03;;;4.93;;
4810;SDS011;2419;51.276;6.472;2023-09-07T07:22:37;5.67;;;4.37;;
4810;SDS011;2419;51.276;6.472;2023-09-07T07:25:06;6.13;;;4.50;;
4810;SDS011;2419;51.276;6.472;2023-09-07T07:27:34;4.57;;;3.70;;
4810;SDS011;2419;51.276;6.472;2023-09-07T07:30:02;6.70;;;4.50;;
4810;SDS011;2419;51.276;6.472;2023-09-07T07:32:31;7.70;;;3.90;;
4810;SDS011;2419;51.276;6.472;2023-09-07T07:34:59;6.97;;;4.03;;
4810;SDS011;2419;51.276;6.472;2023-09-07T07:37:28;5.20;;;4.07;;
4810;SDS011;2419;51.276;6.472;2023-09-07T07:39:58;7.23;;;3.97;;
4810;SDS011;2419;51.276;6.472;2023-09-07T07:42:27;10.77;;;4.73;;
4810;SDS011;2419;51.276;6.472;2023-09-07T07:44:55;5.37;;;4.40;;
4810;SDS011;2419;51.276;6.472;2023-09-07T07:47:23;8.17;;;4.83;;
4810;SDS011;2419;51.276;6.472;2023-09-07T07:49:53;17.83;;;5.50;;
4810;SDS011;2419;51.276;6.472;2023-09-07T07:52:21;6.70;;;5.00;;
4810;SDS011;2419;51.276;6.472;2023-09-07T07:54:51;5.33;;;4.23;;
4810;SDS011;2419;51.276;6.472;2023-09-07T07:57:20;8.00;;;4.87;;
4810;SDS011;2419;51.276;6.472;2023-09-07T07:59:48;6.07;;;4.03;;
4810;SDS011;2419;51.276;6.472;2023-09-07T08:02:17;20.43;;;5.10;;
4810;SDS011;2419;51.276;6.472;2023-09-07T08:04:45;12.50;;;4.80;;
4810;SDS011;2419;51.276;6.472;2023-09-07T08:07:14;8.27;;;4.70;;
4810;SDS011;2419;51.276;6.472;2023-09-07T08:09:42;6.53;;;4.63;;
4810;SDS011;2419;51.276;6.472;2023-09-07T08:12:11;4.53;;;3.97;;
4810;SDS011;2419;51.276;6.472;2023-09-07T08:14:40;5.90;;;4.40;;
4810;SDS011;2419;51.276;6.472;2023-09-07T08:17:09;6.90;;;4.90;;
4810;SDS011;2419;51.276;6.472;2023-09-07T08:19:37;6.10;;;4.50;;
4810;SDS011;2419;51.276;6.472;2023-09-07T08:22:05;6.73;;;4.50;;
4810;SDS011;2419;51.276;6.472;2023-09-07T08:24:35;11.27;;;4.70;;
4810;SDS011;2419;51.276;6.472;2023-09-07T08:27:03;7.60;;;4.43;;
4810;SDS011;2419;51.276;6.472;2023-09-07T08:29:32;8.27;;;4.60;;
4810;SDS011;2419;51.276;6.472;2023-09-07T08:32:01;7.80;;;4.73;;
4810;SDS011;2419;51.276;6.472;2023-09-07T08:34:30;9.20;;;4.60;;
4810;SDS011;2419;51.276;6.472;2023-09-07T08:36:58;4.60;;;4.20;;
4810;SDS011;2419;51.276;6.472;2023-09-07T08:39:26;4.77;;;4.30;;
4810;SDS011;2419;51.276;6.472;2023-09-07T08:41:55;7.47;;;4.80;;
4810;SDS011;2419;51.276;6.472;2023-09-07T08:44:28;6.40;;;4.47;;
4810;SDS011;2419;51.276;6.472;2023-09-07T08:46:57;7.07;;;4.13;;
4810;SDS011;2419;51.276;6.472;2023-09-07T08:49:29;6.17;;;4.20;;
4810;SDS011;2419;51.276;6.472;2023-09-07T08:51:59;6.57;;;4.03;;
4810;SDS011;2419;51.276;6.472;2023-09-07T08:54:30;4.70;;;3.90;;
4810;SDS011;2419;51.276;6.472;2023-09-07T08:57:02;22.77;;;4.97;;
4810;SDS011;2419;51.276;6.472;2023-09-07T08:59:31;7.30;;;4.13;;
4810;SDS011;2419;51.276;6.472;2023-09-07T09:02:00;5.60;;;4.20;;
4810;SDS011;2419;51.276;6.472;2023-09-07T09:04:30;5.57;;;4.20;;
4810;SDS011;2419;51.276;6.472;2023-09-07T09:07:00;12.90;;;4.87;;
4810;SDS011;2419;51.276;6.472;2023-09-07T09:09:30;7.03;;;4.87;;
4810;SDS011;2419;51.276;6.472;2023-09-07T09:12:06;5.20;;;4.13;;
4810;SDS011;2419;51.276;6.472;2023-09-07T09:14:34;6.20;;;4.20;;
4810;SDS011;2419;51.276;6.472;2023-09-07T09:17:04;5.33;;;4.40;;
4810;SDS011;2419;51.276;6.472;2023-09-07T09:19:32;7.73;;;4.20;;
4810;SDS011;2419;51.276;6.472;2023-09-07T09:22:01;4.70;;;3.80;;
4810;SDS011;2419;51.276;6.472;2023-09-07T09:24:31;4.33;;;3.37;;
4810;SDS011;2419;51.276;6.472;2023-09-07T09:27:00;4.50;;;3.60;;
4810;SDS011;2419;51.276;6.472;2023-09-07T09:29:29;5.47;;;3.20;;
4810;SDS011;2419;51.276;6.472;2023-09-07T09:31:59;5.33;;;4.00;;
4810;SDS011;2419;51.276;6.472;2023-09-07T09:34:33;4.10;;;3.47;;
4810;SDS011;2419;51.276;6.472;2023-09-07T09:37:02;4.63;;;3.63;;
4810;SDS011;2419;51.276;6.472;2023-09-07T09:39:31;6.93;;;4.80;;
4810;SDS011;2419;51.276;6.472;2023-09-07T09:42:00;7.83;;;4.00;;
4810;SDS011;2419;51.276;6.472;2023-09-07T09:44:29;4.57;;;3.63;;
4810;SDS011;2419;51.276;6.472;2023-09-07T09:46:57;5.10;;;3.40;;
4810;SDS011;2419;51.276;6.472;2023-09-07T09:49:27;5.83;;;3.90;;
4810;SDS011;2419;51.276;6.472;2023-09-07T09:51:57;5.40;;;3.57;;
4810;SDS011;2419;51.276;6.472;2023-09-07T09:54:27;5.17;;;3.90;;
4810;SDS011;2419;51.276;6.472;2023-09-07T09:56:55;29.33;;;5.47;;
4810;SDS011;2419;51.276;6.472;2023-09-07T09:59:23;6.80;;;4.30;;
4810;SDS011;2419;51.276;6.472;2023-09-07T10:01:51;5.00;;;4.03;;
4810;SDS011;2419;51.276;6.472;2023-09-07T10:04:21;4.00;;;3.60;;
4810;SDS011;2419;51.276;6.472;2023-09-07T10:06:50;5.50;;;4.30;;
4810;SDS011;2419;51.276;6.472;2023-09-07T10:09:22;6.73;;;4.13;;
4810;SDS011;2419;51.276;6.472;2023-09-07T10:11:51;4.23;;;3.83;;
4810;SDS011;2419;51.276;6.472;2023-09-07T10:14:20;5.53;;;3.70;;
4810;SDS011;2419;51.276;6.472;2023-09-07T10:16:49;4.60;;;4.20;;
4810;SDS011;2419;51.276;6.472;2023-09-07T10:19:20;6.60;;;3.23;;
4810;SDS011;2419;51.276;6.472;2023-09-07T10:21:50;3.93;;;3.43;;
4810;SDS011;2419;51.276;6.472;2023-09-07T10:24:24;7.00;;;3.87;;
4810;SDS011;2419;51.276;6.472;2023-09-07T10:26:57;4.07;;;3.13;;
4810;SDS011;2419;51.276;6.472;2023-09-07T10:29:26;4.03;;;3.43;;
4810;SDS011;2419;51.276;6.472;2023-09-07T10:31:55;6.00;;;3.07;;
4810;SDS011;2419;51.276;6.472;2023-09-07T10:34:33;4.13;;;3.20;;
4810;SDS011;2419;51.276;6.472;2023-09-07T10:37:04;4.70;;;3.77;;
4810;SDS011;2419;51.276;6.472;2023-09-07T10:39:35;6.27;;;3.37;;
4810;SDS011;2419;51.276;6.472;2023-09-07T10:42:04;4.07;;;3.50;;
4810;SDS011;2419;51.276;6.472;2023-09-07T10:44:33;6.13;;;3.73;;
4810;SDS011;2419;51.276;6.472;2023-09-07T10:47:01;3.50;;;3.20;;
4810;SDS011;2419;51.276;6.472;2023-09-07T10:49:31;7.83;;;3.60;;
4810;SDS011;2419;51.276;6.472;2023-09-07T10:51:59;6.70;;;4.40;;
4810;SDS011;2419;51.276;6.472;2023-09-07T10:54:27;3.97;;;3.50;;
4810;SDS011;2419;51.276;6.472;2023-09-07T10:56:57;4.50;;;3.83;;
4810;SDS011;2419;51.276;6.472;2023-09-07T10:59:35;4.67;;;4.00;;
4810;SDS011;2419;51.276;6.472;2023-09-07T11:02:04;4.73;;;3.23;;
4810;SDS011;2419;51.276;6.472;2023-09-07T11:04:32;6.10;;;3.33;;
4810;SDS011;2419;51.276;6.472;2023-09-07T11:07:01;9.93;;;3.43;;
4810;SDS011;2419;51.276;6.472;2023-09-07T11:09:30;4.83;;;3.60;;
4810;SDS011;2419;51.276;6.472;2023-09-07T11:12:04;4.87;;;3.50;;
4810;SDS011;2419;51.276;6.472;2023-09-07T11:14:34;8.10;;;3.20;;
4810;SDS011;2419;51.276;6.472;2023-09-07T11:17:02;3.50;;;3.20;;
4810;SDS011;2419;51.276;6.472;2023-09-07T11:19:31;9.07;;;3.50;;
4810;SDS011;2419;51.276;6.472;2023-09-07T11:22:00;3.80;;;3.13;;
4810;SDS011;2419;51.276;6.472;2023-09-07T11:24:31;5.10;;;3.37;;
4810;SDS011;2419;51.276;6.472;2023-09-07T11:27:00;4.23;;;3.00;;
4810;SDS011;2419;51.276;6.472;2023-09-07T11:29:32;8.47;;;3.33;;
4810;SDS011;2419;51.276;6.472;2023-09-07T11:32:06;4.37;;;3.03;;
4810;SDS011;2419;51.276;6.472;2023-09-07T11:34:35;4.40;;;3.40;;
4810;SDS011;2419;51.276;6.472;2023-09-07T11:37:14;3.30;;;3.00;;
4810;SDS011;2419;51.276;6.472;2023-09-07T11:39:43;12.50;;;3.40;;
4810;SDS011;2419;51.276;6.472;2023-09-07T11:42:12;4.20;;;3.03;;
4810;SDS011;2419;51.276;6.472;2023-09-07T11:44:41;4.50;;;3.37;;
4810;SDS011;2419;51.276;6.472;2023-09-07T11:47:09;5.33;;;3.00;;
4810;SDS011;2419;51.276;6.472;2023-09-07T11:49:37;4.20;;;3.53;;
4810;SDS011;2419;51.276;6.472;2023-09-07T11:52:05;5.43;;;3.20;;
4810;SDS011;2419;51.276;6.472;2023-09-07T11:54:33;4.93;;;3.10;;
4810;SDS011;2419;51.276;6.472;2023-09-07T11:57:01;3.43;;;3.13;;
4810;SDS011;2419;51.276;6.472;2023-09-07T11:59:30;4.37;;;3.23;;
4810;SDS011;2419;51.276;6.472;2023-09-07T12:02:15;3.40;;;3.10;;
4810;SDS011;2419;51.276;6.472;2023-09-07T12:04:44;15.23;;;4.33;;
4810;SDS011;2419;51.276;6.472;2023-09-07T12:07:12;7.43;;;3.53;;
4810;SDS011;2419;51.276;6.472;2023-09-07T12:09:40;3.87;;;3.37;;
4810;SDS011;2419;51.276;6.472;2023-09-07T12:12:08;4.60;;;3.27;;
4810;SDS011;2419;51.276;6.472;2023-09-07T12:14:37;27.20;;;5.50;;
4810;SDS011;2419;51.276;6.472;2023-09-07T12:17:05;4.00;;;3.07;;
4810;SDS011;2419;51.276;6.472;2023-09-07T12:19:34;3.73;;;3.40;;
4810;SDS011;2419;51.276;6.472;2023-09-07T12:22:03;6.47;;;3.90;;
4810;SDS011;2419;51.276;6.472;2023-09-07T12:24:31;3.83;;;3.50;;
4810;SDS011;2419;51.276;6.472;2023-09-07T12:26:59;5.10;;;3.30;;
4810;SDS011;2419;51.276;6.472;2023-09-07T12:29:27;3.30;;;2.83;;
4810;SDS011;2419;51.276;6.472;2023-09-07T12:31:55;10.93;;;3.33;;
4810;SDS011;2419;51.276;6.472;2023-09-07T12:34:24;3.80;;;3.50;;
4810;SDS011;2419;51.276;6.472;2023-09-07T12:36:55;6.40;;;3.30;;
4810;SDS011;2419;51.276;6.472;2023-09-07T12:39:23;4.23;;;3.20;;
4810;SDS011;2419;51.276;6.472;2023-09-07T12:41:52;15.83;;;3.80;;
4810;SDS011;2419;51.276;6.472;2023-09-07T12:44:20;36.07;;;4.70;;
4810;SDS011;2419;51.276;6.472;2023-09-07T12:46:48;4.70;;;2.90;;
4810;SDS011;2419;51.276;6.472;2023-09-07T12:49:16;4.27;;;2.87;;
4810;SDS011;2419;51.276;6.472;2023-09-07T12:51:45;4.03;;;2.90;;
4810;SDS011;2419;51.276;6.472;2023-09-07T12:54:15;4.53;;;3.37;;
4810;SDS011;2419;51.276;6.472;2023-09-07T12:56:43;5.93;;;3.00;;
4810;SDS011;2419;51.276;6.472;2023-09-07T12:59:12;4.10;;;3.30;;
4810;SDS011;2419;51.276;6.472;2023-09-07T13:01:40;3.50;;;3.20;;
4810;SDS011;2419;51.276;6.472;2023-09-07T13:04:09;6.00;;;2.87;;
4810;SDS011;2419;51.276;6.472;2023-09-07T13:06:37;4.90;;;3.23;;
4810;SDS011;2419;51.276;6.472;2023-09-07T13:09:06;3.23;;;2.93;;
4810;SDS011;2419;51.276;6.472;2023-09-07T13:11:37;7.07;;;3.33;;
4810;SDS011;2419;51.276;6.472;2023-09-07T13:14:05;5.30;;;3.30;;
4810;SDS011;2419;51.276;6.472;2023-09-07T13:16:37;6.93;;;3.53;;
4810;SDS011;2419;51.276;6.472;2023-09-07T13:19:05;8.77;;;3.40;;
4810;SDS011;2419;51.276;6.472;2023-09-07T13:21:33;6.60;;;3.40;;
4810;SDS011;2419;51.276;6.472;2023-09-07T13:24:02;3.47;;;3.10;;
4810;SDS011;2419;51.276;6.472;2023-09-07T13:26:30;26.20;;;4.30;;
4810;SDS011;2419;51.276;6.472;2023-09-07T13:29:00;3.10;;;2.80;;
4810;SDS011;2419;51.276;6.472;2023-09-07T13:31:28;8.40;;;2.87;;
4810;SDS011;2419;51.276;6.472;2023-09-07T13:33:56;3.83;;;3.43;;
4810;SDS011;2419;51.276;6.472;2023-09-07T13:36:25;9.73;;;3.67;;
4810;SDS011;2419;51.276;6.472;2023-09-07T13:38:53;5.47;;;3.27;;
4810;SDS011;2419;51.276;6.472;2023-09-07T13:41:23;10.47;;;3.70;;
4810;SDS011;2419;51.276;6.472;2023-09-07T13:43:51;3.87;;;3.30;;
4810;SDS011;2419;51.276;6.472;2023-09-07T13:46:21;5.40;;;3.33;;
4810;SDS011;2419;51.276;6.472;2023-09-07T13:48:50;5.83;;;3.67;;
4810;SDS011;2419;51.276;6.472;2023-09-07T13:51:18;18.10;;;3.67;;
4810;SDS011;2419;51.276;6.472;2023-09-07T13:53:46;3.30;;;3.00;;
4810;SDS011;2419;51.276;6.472;2023-09-07T13:56:16;3.50;;;3.17;;
4810;SDS011;2419;51.276;6.472;2023-09-07T13:58:44;3.73;;;3.20;;
4810;SDS011;2419;51.276;6.472;2023-09-07T14:01:13;3.77;;;3.17;;
4810;SDS011;2419;51.276;6.472;2023-09-07T14:03:43;6.23;;;3.47;;
4810;SDS011;2419;51.276;6.472;2023-09-07T14:06:11;3.90;;;3.40;;
4810;SDS011;2419;51.276;6.472;2023-09-07T14:08:39;6.03;;;3.33;;
4810;SDS011;2419;51.276;6.472;2023-09-07T14:11:07;7.30;;;3.27;;
4810;SDS011;2419;51.276;6.472;2023-09-07T14:13:35;4.50;;;3.43;;
4810;SDS011;2419;51.276;6.472;2023-09-07T14:16:03;4.37;;;3.50;;
4810;SDS011;2419;51.276;6.472;2023-09-07T14:18:32;7.23;;;3.37;;
4810;SDS011;2419;51.276;6.472;2023-09-07T14:21:02;6.33;;;3.13;;
4810;SDS011;2419;51.276;6.472;2023-09-07T14:23:30;9.60;;;3.77;;
4810;SDS011;2419;51.276;6.472;2023-09-07T14:25:58;4.50;;;3.23;;
4810;SDS011;2419;51.276;6.472;2023-09-07T14:28:26;4.43;;;3.03;;
4810;SDS011;2419;51.276;6.472;2023-09-07T14:30:55;4.40;;;3.53;;
4810;SDS011;2419;51.276;6.472;2023-09-07T14:33:25;8.20;;;3.87;;
4810;SDS011;2419;51.276;6.472;2023-09-07T14:35:53;4.50;;;3.53;;
4810;SDS011;2419;51.276;6.472;2023-09-07T14:38:23;4.77;;;3.57;;
4810;SDS011;2419;51.276;6.472;2023-09-07T14:40:53;3.63;;;3.23;;
4810;SDS011;2419;51.276;6.472;2023-09-07T14:43:21;4.43;;;3.20;;
4810;SDS011;2419;51.276;6.472;2023-09-07T14:45:50;3.80;;;3.23;;
4810;SDS011;2419;51.276;6.472;2023-09-07T14:48:18;8.40;;;3.37;;
4810;SDS011;2419;51.276;6.472;2023-09-07T14:50:46;6.13;;;3.13;;
4810;SDS011;2419;51.276;6.472;2023-09-07T14:53:14;3.80;;;3.27;;
4810;SDS011;2419;51.276;6.472;2023-09-07T14:55:43;4.67;;;3.37;;
4810;SDS011;2419;51.276;6.472;2023-09-07T14:58:11;15.03;;;3.60;;
4810;SDS011;2419;51.276;6.472;2023-09-07T15:00:39;7.73;;;3.37;;
4810;SDS011;2419;51.276;6.472;2023-09-07T15:03:07;4.10;;;3.50;;
4810;SDS011;2419;51.276;6.472;2023-09-07T15:05:36;3.30;;;2.90;;
4810;SDS011;2419;51.276;6.472;2023-09-07T15:08:04;5.60;;;3.37;;
4810;SDS011;2419;51.276;6.472;2023-09-07T15:10:33;11.33;;;3.23;;
4810;SDS011;2419;51.276;6.472;2023-09-07T15:13:03;4.50;;;3.57;;
4810;SDS011;2419;51.276;6.472;2023-09-07T15:15:32;3.90;;;3.40;;
4810;SDS011;2419;51.276;6.472;2023-09-07T15:18:03;3.90;;;3.43;;
4810;SDS011;2419;51.276;6.472;2023-09-07T15:20:32;4.33;;;3.40;;
4810;SDS011;2419;51.276;6.472;2023-09-07T15:23:00;3.97;;;3.47;;